Logo AVAMET
Benvolgut visitant, si us plau, ingressa Recuperar contrasenya

Xàbia Tossals/Carrasquetes

Dades diàries. Acumulats / Últims 30 dies disponibles

Data Temperatura (°C) Humitat rel. (%) Pressió rel. (hPa) Vent (km/h) Precipitació
Mínima Mitjana Màxima Amplitud
tèrmica
Mínima Mitjana Màxima Mínima Mitjana Màxima Predom. Mitjana Ràfega
màxima
Total
(mm)
Índex-n
Mínima Mitjana Màxima Mínima Mitjana Màxima n
0 a 1
P0 max
mm 5'
Dades mensuals acumulades fins l'últim dia disponible
08/2019 20,1 22,3 25,3 26,4 27,3 30,7 36,3 16,2 30 77 96 1.008 1.014 1.020   2,8 38,6 25,6
Dades anuals acumulades fins l'últim dia disponible
2019 2,3 13,7 26,1 18,2 11,3 23,1 36,3 34,0 18 70 99 993 1.017 1.035   2,7 53,1 451,0
Últims 30 dies disponibles
25-08-2019 20,2     24,6     28,8 8,6 68 81 92 1.015 1.017 1.018 S 2,0 20,9 0,0
24-08-2019 20,4     24,6     29,1 8,7 65 79 92 1.016 1.018 1.019 ESE 1,9 22,5 0,0
23-08-2019 20,6     24,6     29,6 9,0 49 77 93 1.017 1.019 1.020 NW 1,9 20,9 0,0
22-08-2019 20,1     24,1     28,2 8,1 59 79 90 1.018 1.019 1.020 S 2,1 19,3 0,0
21-08-2019 23,1     24,8     27,8 4,7 56 78 95 1.018 1.019 1.020 E 3,2 22,5 18,6 0,55 2,20
20-08-2019 23,1     25,9     29,2 6,1 71 85 92 1.013 1.015 1.018 E 3,7 32,2 1,8 0,68 0,80
19-08-2019 22,3     26,7     30,0 7,7 68 84 96 1.011 1.013 1.014 ENE 3,7 32,2 0,0
18-08-2019 22,0     26,8     33,1 11,1 50 83 96 1.010 1.011 1.013 SW 2,6 24,1 0,0
17-08-2019 20,6     26,6     31,2 10,6 58 79 91 1.011 1.014 1.016 SW 2,3 24,1 0,0
16-08-2019 21,2     26,2     30,8 9,6 47 73 84 1.014 1.016 1.018 WSW 2,4 24,1 0,0
15-08-2019 22,3     26,6     31,2 8,9 43 73 93 1.015 1.017 1.018 SW 2,7 27,4 0,0
14-08-2019 20,2     25,4     29,8 9,6 57 75 91 1.015 1.017 1.019 SO 3,4 29,0 0,0
13-08-2019 22,9     25,5     28,0 5,1 57 72 89 1.016 1.017 1.018 ESE 3,2 19,3 5,0 0,70 1,90
12-08-2019 24,9     26,2     28,4 3,5 54 81 91 1.010 1.013 1.017 ENE 5,1 38,6 0,0
11-08-2019 25,3     28,2     32,4 7,1 62 80 93 1.010 1.012 1.014 NNW 2,9 25,7 0,2
10-08-2019 24,7     28,8     32,4 7,7 43 68 91 1.011 1.013 1.016 NE 4,0 37,0 0,0
09-08-2019 22,0     29,4     36,3 14,3 30 61 90 1.010 1.011 1.012 SW 1,4 20,9 0,0
08-08-2019 23,7     28,9     34,2 10,5 47 72 94 1.010 1.011 1.012 SW 2,3 22,5 0,0
07-08-2019 23,8     27,7     31,5 7,7 58 80 95 1.008 1.009 1.011 SW 1,1 16,1 0,0
06-08-2019 23,6     27,7     33,4 9,8 61 81 93 1.008 1.011 1.013 SW 2,1 20,9 0,0
05-08-2019 22,4     26,8     30,9 8,5 68 80 93 1.011 1.013 1.014 WSW 1,6 19,3 0,0
04-08-2019 21,6     26,8     32,9 11,3 51 68 88 1.011 1.013 1.014 SW 1,8 19,3 0,0
03-08-2019 21,6     25,9     31,3 9,7 40 75 92 1.012 1.014 1.015 WSW 2,1 20,9 0,0
02-08-2019 21,4     25,7     29,4 8,0 62 77 91 1.012 1.013 1.015 NE 4,5 32,2 0,0
01-08-2019 23,0     25,2     27,3 4,3 64 79 87 1.010 1.012 1.014 NE 6,1 29,0 0,0
31-07-2019 23,6     25,6     28,7 5,1 63 80 91 1.012 1.015 1.017 NE 3,4 30,6 0,0
30-07-2019 21,6     26,0     31,5 9,9 61 79 90 1.010 1.012 1.015 ESE 1,8 27,4 0,0
29-07-2019 20,9     26,3     30,4 9,5 49 71 88 1.008 1.010 1.011 SW 3,5 27,4 0,0
28-07-2019 22,8     26,3     29,9 7,1 45 62 80 1.006 1.009 1.010 NNW 4,3 25,7 0,0
27-07-2019 21,6     28,2     33,4 11,8 28 60 93 1.002 1.005 1.007 SSE 2,6 29,0 0,0
Últims 13 mesos disponibles
07/2019 19,9 22,0 26,1 26,6 28,7 31,2 36,2 16,3 51 71 81 1.005 1.013 1.020 ESE 2,7 45,1 2,2
06/2019 13,0 17,6 22,8 22,4 21,6 27,1 35,9 22,9 50 70 83 1.008 1.014 1.021 NNW 3,5 41,8 0,8
05/2019 9,8 14,2 19,7 18,7 19,8 23,6 30,1 20,3 54 72 84 1.004 1.015 1.024 WSW 2,2 41,8 12,4
04/2019 7,8 11,2 14,3 15,3 14,3 20,0 28,6 20,8 47 73 95 999 1.012 1.025 W 3,3 43,5 363,0
03/2019 6,4 9,3 13,2 14,2 13,9 19,3 28,1 21,7 45 67 91 1.010 1.022 1.029 NW 2,4 38,6 39,2
02/2019 4,3 7,3 11,5 12,0 13,0 17,4 22,8 18,5 38 70 86 995 1.024 1.033 NW 2,2 53,1 1,0
01/2019 2,3 7,0 11,9 11,3 11,3 16,4 21,5 19,2 40 65 87 1.003 1.018 1.030 NW 2,2 46,7 6,8
12/2018 5,6 8,5 10,9 12,8 13,1 18,5 22,3 16,7 57 77 88 1.008 1.024 1.030 NW 0,8 45,1 4,6
11/2018 7,2 11,3 17,3 14,9 15,1 19,2 23,8 16,6 57 76 94 999 1.015 1.022 NW 1,8 48,3 115,4
10/2018 8,7 15,0 18,4 18,8 14,8 23,2 28,5 19,8 45 76 89 999 1.014 1.024 1,8 37,0 127,2
09/2018 15,0 20,6 23,2 24,2 22,9 28,5 31,5 16,5 73 82 92 1.011 1.018 1.026 1,8 32,2 140,4
08/2018 19,1 22,6 25,8 26,9 25,3 32,0 37,5 18,4 53 75 86 1.011 1.015 1.020 1,7 35,4 131,6
07/2018 19,9 21,9 24,8 26,6 28,4 31,8 35,1 15,2 2,6 32,2 0,0
Tots els anys disponibles
2018 2,1 14,2 25,8 18,4 8,1 23,2 37,5 35,4 37 76 94 999 1.017 1.030 NW 2,2 62,8 778,8
2017 0,4 14,1 26,9 18,7 8,9 23,3 35,9 35,5 38 71 96 999 1.018 1.036 0,0 68,0 720,4
2016 1,9 14,4 24,3 18,7 12,2 23,1 38,2 36,3 35 70 94 995 1.017 1.036 56,0 475,4
2015 3,8 12,1 21,1 16,4 13,1 20,7 30,4 26,6 44 78 91 1.008 1.023 1.036 48,0 232,2
2014
Temperatura (°C)
Humitat relativa (%)
Velocitat del vent i ràfega màxima (km/h)
Direcció del vent (°)
Pressió (hPa)
Precipitació (mm)
Nota sobre les dades: s'avisa a l'usuari de la provisionalitat i no oficialitat d'aquestes dades
Logo AVAMET blanc
Web allotjada a Sollutia
Llicència de Creative CommonsLa web d'AVAMET i els seus continguts estan subjectes a una llicència de
Reconeixement - No Comercial - Compartir igual
Properes estacions: Altea - Club Nàutic d'Altea (Soci), Ares del Maestrat (Ajuntament Soci),      - - - - -      Últimes estacions: Catadau - Urb. Lloma Molina (Inforatge), Ontinyent - El Pilar (Soci) - - -